Terminal Aerodrome Forecast
Issued by NWS Upton, NY

Home | Current Version | Previous Version | Text Only | Print | Product List | Glossary On
Versions: 1 2 3 4 5 6 7 8 9 10 11 12 13 14 15 16 17 18 19 20 21 22 23 24 25 26 27 28 29
572
FTUS41 KOKX 221949 AAA
TAFLGA
TAF AMD
KLGA 221949Z 2220/2318 32025G38KT P6SM SKC
     FM222100 33025G34KT P6SM SKC
     FM230000 32020G30KT P6SM SKC
     FM230200 33015G25KT P6SM SKC
     FM230900 33012KT P6SM SKC
     FM231600 32010KT P6SM SKC=

USA.gov is the U.S. government's official web portal to all federal, state and local government web resources and services.